createdAt,value
2023-02-06T00:01:34.647Z,104346.75
2023-02-06T00:04:01.713Z,104353.25
2023-02-06T00:06:28.604Z,104353.22
2023-02-06T00:08:55.564Z,104347.25
2023-02-06T00:11:22.898Z,104354.69
2023-02-06T00:13:50.192Z,104356.47
2023-02-06T00:16:19.934Z,104354.28
2023-02-06T00:18:47.905Z,104367.34
2023-02-06T00:21:14.974Z,104366.13
2023-02-06T00:23:41.999Z,104366.84
2023-02-06T00:26:09.654Z,104359.31
2023-02-06T00:28:38.255Z,104364.78
2023-02-06T00:31:06.965Z,104361.00
2023-02-06T00:33:35.110Z,104357.44
2023-02-06T00:36:03.514Z,104355.53
2023-02-06T00:38:30.949Z,104357.34
2023-02-06T00:40:58.849Z,104355.66
2023-02-06T00:43:25.933Z,104356.97
2023-02-06T00:45:54.678Z,104362.28
2023-02-06T00:48:22.993Z,104365.69
2023-02-06T00:50:50.932Z,104371.88
2023-02-06T00:53:18.434Z,104368.50
2023-02-06T00:55:45.621Z,104371.47
2023-02-06T00:58:12.473Z,104370.25
2023-02-06T01:00:41.811Z,104371.16
2023-02-06T01:03:08.893Z,104370.13
2023-02-06T01:05:36.035Z,104363.69
2023-02-06T01:08:04.514Z,104357.25
2023-02-06T01:10:32.433Z,104348.28
2023-02-06T01:13:00.020Z,104357.16
2023-02-06T01:15:27.697Z,104343.34
2023-02-06T01:17:54.628Z,104339.88
2023-02-06T01:20:23.066Z,104352.22
2023-02-06T01:22:50.254Z,104359.56
2023-02-06T01:25:17.964Z,104353.28
2023-02-06T01:27:45.006Z,104348.28
2023-02-06T01:30:13.956Z,104346.84
2023-02-06T01:32:41.989Z,104346.00
2023-02-06T01:35:10.624Z,104346.44
2023-02-06T01:37:39.024Z,104350.69
2023-02-06T01:40:09.570Z,104333.09
2023-02-06T01:42:39.909Z,104340.91
2023-02-06T01:45:26.141Z,104342.19
2023-02-06T01:48:08.618Z,104330.19
2023-02-06T01:50:38.880Z,104339.03
2023-02-06T01:53:06.789Z,104339.47
2023-02-06T01:55:38.045Z,104344.94
2023-02-06T01:58:05.844Z,104332.34
2023-02-06T02:00:33.003Z,104336.34
2023-02-06T02:03:01.379Z,104359.47
2023-02-06T02:05:33.286Z,104348.56
2023-02-06T02:08:10.460Z,104355.22
2023-02-06T02:10:38.016Z,104345.97
2023-02-06T02:13:04.921Z,104336.94
2023-02-06T02:15:52.285Z,104336.09
2023-02-06T02:18:26.487Z,104327.72
2023-02-06T02:21:31.968Z,104319.75
2023-02-06T02:24:28.773Z,104321.47
2023-02-06T02:27:19.595Z,104320.09
2023-02-06T02:30:07.578Z,104314.75
2023-02-06T02:32:52.754Z,104327.97
2023-02-06T02:35:48.369Z,104326.53
2023-02-06T02:38:42.985Z,104333.69
2023-02-06T02:41:39.993Z,104334.78
2023-02-06T02:44:11.466Z,104332.03
2023-02-06T02:46:50.727Z,104325.50
2023-02-06T02:49:22.226Z,104321.53
2023-02-06T02:51:50.474Z,104326.75
2023-02-06T02:54:18.671Z,104331.75
2023-02-06T02:56:46.123Z,104340.09
2023-02-06T02:59:19.364Z,104336.09
2023-02-06T03:02:10.480Z,104334.44
2023-02-06T03:04:43.210Z,104339.28
2023-02-06T03:07:24.635Z,104327.53
2023-02-06T03:09:58.427Z,104327.13
2023-02-06T03:12:31.396Z,104316.69
2023-02-06T03:15:08.071Z,104317.13
2023-02-06T03:17:39.629Z,104328.47
2023-02-06T03:20:10.562Z,104322.88
2023-02-06T03:22:39.842Z,104312.66
2023-02-06T03:25:14.152Z,104318.78
2023-02-06T03:27:43.680Z,104328.69
2023-02-06T03:30:14.018Z,104329.50
2023-02-06T03:32:46.163Z,104333.47
2023-02-06T03:35:31.694Z,104330.31
2023-02-06T03:37:58.708Z,104331.13
2023-02-06T03:40:28.180Z,104328.19
2023-02-06T03:43:01.668Z,104326.13
2023-02-06T03:45:39.861Z,104314.00
2023-02-06T03:48:13.075Z,104320.28
2023-02-06T03:50:44.137Z,104314.00
2023-02-06T03:53:13.175Z,104302.94
2023-02-06T03:55:41.564Z,104303.97
2023-02-06T03:58:13.950Z,104297.31
2023-02-06T04:00:43.934Z,104293.97
2023-02-06T04:03:13.085Z,104287.91
2023-02-06T04:05:41.004Z,104300.06
2023-02-06T04:08:09.037Z,104289.53
2023-02-06T04:10:35.942Z,104293.38
2023-02-06T04:13:02.943Z,104293.25
2023-02-06T04:15:30.050Z,104295.16
2023-02-06T04:18:00.999Z,104293.56
2023-02-06T04:20:29.255Z,104306.78
2023-02-06T04:22:56.782Z,104305.78
2023-02-06T04:25:24.315Z,104298.81
2023-02-06T04:27:51.779Z,104301.28
2023-02-06T04:30:19.839Z,104308.59
2023-02-06T04:32:46.860Z,104307.50
2023-02-06T04:35:13.761Z,104309.00
2023-02-06T04:37:40.702Z,104303.31
2023-02-06T04:40:08.080Z,104313.56
2023-02-06T04:42:34.913Z,104310.34
2023-02-06T04:45:01.829Z,104312.66
2023-02-06T04:47:28.837Z,104315.16
2023-02-06T04:49:55.710Z,104306.94
2023-02-06T04:52:22.737Z,104312.94
2023-02-06T04:54:49.758Z,104317.97
2023-02-06T04:57:16.615Z,104317.72
2023-02-06T04:59:43.532Z,104320.63
2023-02-06T05:02:10.597Z,104306.56
2023-02-06T05:04:39.008Z,104312.56
2023-02-06T05:07:06.178Z,104308.59
2023-02-06T05:09:33.232Z,104312.91
2023-02-06T05:12:00.291Z,104312.13
2023-02-06T05:14:27.383Z,104311.72
2023-02-06T05:16:54.232Z,104312.34
2023-02-06T05:19:21.162Z,104316.13
2023-02-06T05:21:48.559Z,104308.78
2023-02-06T05:24:15.520Z,104303.34
2023-02-06T05:26:42.516Z,104302.22
2023-02-06T05:29:09.825Z,104316.22
2023-02-06T05:31:36.907Z,104304.88
2023-02-06T05:34:04.112Z,104305.03
2023-02-06T05:36:30.992Z,104308.78
2023-02-06T05:38:57.868Z,104305.63
2023-02-06T05:41:24.930Z,104301.22
2023-02-06T05:43:52.144Z,104288.19
2023-02-06T05:46:19.675Z,104301.81
2023-02-06T05:48:46.857Z,104297.00
2023-02-06T05:51:14.651Z,104284.56
2023-02-06T05:53:41.557Z,104282.06
2023-02-06T05:56:08.721Z,104281.28
2023-02-06T05:58:35.731Z,104276.59
2023-02-06T06:01:02.724Z,104274.06
2023-02-06T06:03:32.449Z,104271.28
2023-02-06T06:06:00.635Z,104262.75
2023-02-06T06:08:27.869Z,104266.63
2023-02-06T06:10:55.079Z,104264.72
2023-02-06T06:13:21.990Z,104264.97
2023-02-06T06:15:51.868Z,104261.41
2023-02-06T06:18:20.898Z,104268.38
2023-02-06T06:20:49.231Z,104270.94
2023-02-06T06:23:16.376Z,104275.09
2023-02-06T06:25:43.846Z,104282.16
2023-02-06T06:28:11.080Z,104274.13
2023-02-06T06:30:38.322Z,104271.41
2023-02-06T06:33:05.704Z,104269.13
2023-02-06T06:35:34.419Z,104271.25
2023-02-06T06:38:01.573Z,104264.50
2023-02-06T06:40:28.929Z,104268.09
2023-02-06T06:42:56.061Z,104270.66
2023-02-06T06:45:23.068Z,104279.28
2023-02-06T06:47:49.997Z,104272.00
2023-02-06T06:50:17.943Z,104282.22
2023-02-06T06:52:44.840Z,104273.84
2023-02-06T06:55:11.939Z,104275.47
2023-02-06T06:57:38.907Z,104267.31
2023-02-06T07:00:06.222Z,104261.84
2023-02-06T07:02:33.131Z,104257.84
2023-02-06T07:05:00.674Z,104250.03
2023-02-06T07:07:27.824Z,104248.34
2023-02-06T07:09:54.803Z,104254.28
2023-02-06T07:12:21.950Z,104246.78
2023-02-06T07:14:49.463Z,104241.13
2023-02-06T07:17:16.323Z,104249.06
2023-02-06T07:19:48.744Z,104250.94
2023-02-06T07:22:16.006Z,104255.72
2023-02-06T07:24:43.016Z,104256.94
2023-02-06T07:27:10.573Z,104246.41
2023-02-06T07:29:38.005Z,104237.16
2023-02-06T07:32:05.963Z,104234.84
2023-02-06T07:34:33.154Z,104242.19
2023-02-06T07:37:01.070Z,104246.56
2023-02-06T07:39:28.253Z,104255.81
2023-02-06T07:41:55.464Z,104257.69
2023-02-06T07:44:27.412Z,104268.22
2023-02-06T07:46:54.255Z,104256.47
2023-02-06T07:49:21.432Z,104255.81
2023-02-06T07:51:48.554Z,104252.19
2023-02-06T07:54:15.560Z,104254.59
2023-02-06T07:56:43.100Z,104245.41
2023-02-06T07:59:10.351Z,104251.78
2023-02-06T08:01:37.300Z,104257.53
2023-02-06T08:04:04.422Z,104258.84
2023-02-06T08:06:31.450Z,104267.47
2023-02-06T08:08:58.305Z,104265.72
2023-02-06T08:11:27.841Z,104265.41
2023-02-06T08:13:54.717Z,104256.03
2023-02-06T08:16:23.624Z,104269.13
2023-02-06T08:18:51.350Z,104268.81
2023-02-06T08:21:23.615Z,104265.94
2023-02-06T08:23:58.459Z,104276.31
2023-02-06T08:26:27.428Z,104273.00
2023-02-06T08:28:55.482Z,104269.44
2023-02-06T08:31:24.113Z,104278.75
2023-02-06T08:33:51.566Z,104281.09
2023-02-06T08:36:21.038Z,104286.47
2023-02-06T08:38:49.083Z,104280.75
2023-02-06T08:41:24.922Z,104273.03
2023-02-06T08:43:57.632Z,104267.41
2023-02-06T08:46:28.494Z,104276.59
2023-02-06T08:49:00.547Z,104277.88
2023-02-06T08:51:29.033Z,104276.31
2023-02-06T08:53:57.547Z,104284.66
2023-02-06T08:56:24.994Z,104293.44
2023-02-06T08:58:52.378Z,104283.81
2023-02-06T09:01:20.832Z,104284.03
2023-02-06T09:03:49.006Z,104281.53
2023-02-06T09:06:16.289Z,104285.28
2023-02-06T09:08:44.671Z,104283.38
2023-02-06T09:11:17.254Z,104281.69
2023-02-06T09:13:49.913Z,104283.19
2023-02-06T09:16:21.507Z,104276.16
2023-02-06T09:18:52.691Z,104280.81
2023-02-06T09:21:26.390Z,104280.56
2023-02-06T09:23:55.699Z,104272.44
2023-02-06T09:26:24.850Z,104268.22
2023-02-06T09:28:53.140Z,104268.22
2023-02-06T09:31:20.822Z,104280.69
2023-02-06T09:33:48.039Z,104281.72
2023-02-06T09:36:19.192Z,104287.78
2023-02-06T09:38:49.309Z,104279.06
2023-02-06T09:41:44.585Z,104270.41
2023-02-06T09:44:16.782Z,104271.16
2023-02-06T09:46:54.555Z,104268.94
2023-02-06T09:49:28.774Z,104280.25
2023-02-06T09:52:26.238Z,104276.72
2023-02-06T09:55:10.424Z,104276.56
2023-02-06T09:57:41.972Z,104280.56
2023-02-06T10:00:16.516Z,104270.97
2023-02-06T10:02:58.916Z,104282.97
2023-02-06T10:05:44.229Z,104280.38
2023-02-06T10:08:20.412Z,104280.72
2023-02-06T10:11:00.822Z,104283.28
2023-02-06T10:13:53.121Z,104294.06
2023-02-06T10:16:26.279Z,104296.41
2023-02-06T10:18:57.103Z,104299.78
2023-02-06T10:21:44.007Z,104301.38
2023-02-06T10:24:27.300Z,104297.03
2023-02-06T10:26:54.665Z,104292.75
2023-02-06T10:29:27.603Z,104292.19
2023-02-06T10:32:08.771Z,104294.09
2023-02-06T10:34:43.216Z,104284.78
2023-02-06T10:37:28.398Z,104297.56
2023-02-06T10:40:16.867Z,104292.84
2023-02-06T10:42:58.410Z,104289.47
2023-02-06T10:45:34.711Z,104283.34
2023-02-06T10:48:24.375Z,104290.75
2023-02-06T10:50:57.406Z,104287.44
2023-02-06T10:53:38.923Z,104283.00
2023-02-06T10:56:17.630Z,104276.75
2023-02-06T10:58:56.536Z,104279.09
2023-02-06T11:01:26.927Z,104268.84
2023-02-06T11:04:19.513Z,104272.94
2023-02-06T11:06:47.095Z,104267.50
2023-02-06T11:09:15.758Z,104263.00
2023-02-06T11:11:48.777Z,104269.66
2023-02-06T11:14:30.318Z,104265.81
2023-02-06T11:16:59.911Z,104266.56
2023-02-06T11:19:34.369Z,104272.06
2023-02-06T11:22:07.616Z,104262.66
2023-02-06T11:24:35.554Z,104258.53
2023-02-06T11:27:14.658Z,104261.72
2023-02-06T11:29:51.862Z,104253.06
2023-02-06T11:32:36.461Z,104246.75
2023-02-06T11:35:14.950Z,104255.13
2023-02-06T11:37:42.469Z,104252.69
2023-02-06T11:40:19.274Z,104252.19
2023-02-06T11:42:49.093Z,104252.25
2023-02-06T11:45:27.516Z,104250.28
2023-02-06T11:47:55.269Z,104248.44
2023-02-06T11:50:31.550Z,104255.66
2023-02-06T11:53:15.694Z,104254.38
2023-02-06T11:55:44.531Z,104255.78
2023-02-06T11:58:14.166Z,104251.69
2023-02-06T12:00:55.885Z,104248.13
2023-02-06T12:03:58.029Z,104254.13
2023-02-06T12:06:35.104Z,104243.47
2023-02-06T12:09:13.594Z,104241.47
2023-02-06T12:11:47.946Z,104243.13
2023-02-06T12:14:23.254Z,104243.31
2023-02-06T12:16:52.913Z,104235.09
2023-02-06T12:19:35.604Z,104240.34
2023-02-06T12:22:15.961Z,104231.59
2023-02-06T12:24:46.944Z,104220.66
2023-02-06T12:27:23.250Z,104229.41
2023-02-06T12:30:08.997Z,104214.25
2023-02-06T12:32:43.302Z,104220.78
2023-02-06T12:35:22.964Z,104209.00
2023-02-06T12:38:00.379Z,104209.94
2023-02-06T12:40:39.534Z,104211.13
2023-02-06T12:43:13.136Z,104214.06
2023-02-06T12:45:43.054Z,104217.06
2023-02-06T12:48:21.735Z,104202.72
2023-02-06T12:50:59.231Z,104190.56
2023-02-06T12:53:35.772Z,104189.22
2023-02-06T12:56:22.237Z,104192.03
2023-02-06T12:59:07.241Z,104203.84
2023-02-06T13:02:00.982Z,104193.50
2023-02-06T13:04:32.461Z,104190.69
2023-02-06T13:07:11.573Z,104190.44
2023-02-06T13:09:47.665Z,104188.00
2023-02-06T13:12:24.778Z,104192.16
2023-02-06T13:14:56.458Z,104193.31
2023-02-06T13:17:33.394Z,104189.91
2023-02-06T13:20:13.932Z,104179.50
2023-02-06T13:46:01.808Z,104153.97
2023-02-06T13:48:40.817Z,104153.13
2023-02-06T13:51:20.124Z,104162.25
2023-02-06T13:54:21.160Z,104168.63
2023-02-06T13:57:14.868Z,104162.25
2023-02-06T14:00:03.009Z,104168.00
2023-02-06T14:02:48.210Z,104158.34
2023-02-06T14:05:20.807Z,104155.38
2023-02-06T14:08:12.434Z,104161.09
2023-02-06T14:11:04.368Z,104163.13
2023-02-06T14:14:03.474Z,104166.56
2023-02-06T14:16:36.371Z,104157.81
2023-02-06T14:19:06.249Z,104155.63
2023-02-06T14:21:48.261Z,104147.09
2023-02-06T14:24:36.963Z,104147.34
2023-02-06T14:27:19.837Z,104148.81
2023-02-06T14:30:11.245Z,104143.00
2023-02-06T14:32:47.825Z,104147.41
2023-02-06T14:35:36.460Z,104152.13
2023-02-06T14:38:31.557Z,104158.66
2023-02-06T14:41:00.727Z,104166.06
2023-02-06T14:43:32.419Z,104161.63
2023-02-06T14:46:07.943Z,104157.78
2023-02-06T14:48:45.092Z,104154.94
2023-02-06T14:51:28.944Z,104162.38
2023-02-06T14:54:01.918Z,104159.53
2023-02-06T14:56:36.481Z,104168.06
2023-02-06T14:59:19.104Z,104166.31
2023-02-06T15:01:50.680Z,104169.91
2023-02-06T15:04:23.807Z,104172.06
2023-02-06T15:06:56.733Z,104170.09
2023-02-06T15:09:24.138Z,104166.19
2023-02-06T15:11:57.324Z,104165.56
2023-02-06T15:14:30.584Z,104157.56
2023-02-06T15:17:03.073Z,104149.34
2023-02-06T15:19:32.737Z,104154.75
2023-02-06T15:22:13.689Z,104165.97
2023-02-06T15:25:05.548Z,104147.88
2023-02-06T15:27:35.306Z,104155.28
2023-02-06T15:30:17.314Z,104146.38
2023-02-06T15:32:49.684Z,104149.06
2023-02-06T15:35:28.783Z,104138.84
2023-02-06T15:37:57.171Z,104131.63
2023-02-06T15:40:31.934Z,104131.88
2023-02-06T15:43:00.110Z,104129.31
2023-02-06T15:45:31.098Z,104139.38
2023-02-06T15:48:02.184Z,104142.38
2023-02-06T15:50:29.602Z,104143.63
2023-02-06T15:52:56.553Z,104137.00
2023-02-06T15:55:25.765Z,104135.59
2023-02-06T15:57:54.516Z,104126.78
2023-02-06T16:00:29.231Z,104139.81
2023-02-06T16:03:04.160Z,104134.00
2023-02-06T16:05:42.706Z,104129.19
2023-02-06T16:08:21.340Z,104123.06
2023-02-06T16:10:54.396Z,104136.66
2023-02-06T16:13:25.045Z,104137.91
2023-02-06T16:16:19.626Z,104133.34
2023-02-06T16:18:53.492Z,104130.59
2023-02-06T16:21:27.664Z,104144.56
2023-02-06T16:24:02.600Z,104143.88
2023-02-06T16:26:50.169Z,104141.31
2023-02-06T16:29:30.005Z,104132.81
2023-02-06T16:32:02.948Z,104145.31
2023-02-06T16:34:39.566Z,104151.66
2023-02-06T16:37:13.033Z,104152.63
2023-02-06T16:39:42.560Z,104143.31
2023-02-06T16:42:15.106Z,104136.88
2023-02-06T16:44:45.602Z,104148.31
2023-02-06T16:47:18.852Z,104148.78
2023-02-06T16:49:49.967Z,104156.06
2023-02-06T16:52:27.696Z,104155.69
2023-02-06T16:54:57.844Z,104157.19
2023-02-06T16:57:39.476Z,104162.44
2023-02-06T17:00:15.954Z,104168.81
2023-02-06T17:02:43.154Z,104162.63
2023-02-06T17:05:10.025Z,104157.03
2023-02-06T17:07:37.107Z,104166.28
2023-02-06T17:10:05.063Z,104159.03
2023-02-06T17:12:32.423Z,104158.66
2023-02-06T17:14:59.278Z,104160.03
2023-02-06T17:17:26.797Z,104166.34
2023-02-06T17:19:54.412Z,104166.28
2023-02-06T17:22:21.472Z,104168.13
2023-02-06T17:24:48.957Z,104162.38
2023-02-06T17:27:20.812Z,104160.56
2023-02-06T17:29:49.740Z,104157.38
2023-02-06T17:32:21.731Z,104154.13
2023-02-06T17:34:50.953Z,104155.16
2023-02-06T17:37:20.922Z,104161.84
2023-02-06T17:39:50.498Z,104157.25
2023-02-06T17:42:17.769Z,104152.78
2023-02-06T17:44:45.264Z,104155.75
2023-02-06T17:47:12.398Z,104157.50
2023-02-06T17:49:39.595Z,104164.91
2023-02-06T17:52:06.699Z,104155.94
2023-02-06T17:54:34.087Z,104158.97
2023-02-06T17:57:01.086Z,104156.69
2023-02-06T17:59:28.086Z,104161.16
2023-02-06T18:01:55.372Z,104155.47
2023-02-06T18:04:23.129Z,104145.84
2023-02-06T18:06:50.169Z,104150.91
2023-02-06T18:09:17.644Z,104149.94
2023-02-06T18:11:44.725Z,104146.22
2023-02-06T18:14:11.911Z,104141.22
2023-02-06T18:16:42.901Z,104136.66
2023-02-06T18:19:10.759Z,104132.94
2023-02-06T18:21:37.686Z,104137.41
2023-02-06T18:24:05.593Z,104144.34
2023-02-06T18:26:32.824Z,104139.56
2023-02-06T18:29:04.252Z,104136.00
2023-02-06T18:31:35.290Z,104119.03
2023-02-06T18:34:07.736Z,104129.50
2023-02-06T18:36:36.312Z,104133.94
2023-02-06T18:39:04.778Z,104135.06
2023-02-06T18:41:51.033Z,104134.88
2023-02-06T18:44:18.242Z,104129.06
2023-02-06T18:46:45.388Z,104126.94
2023-02-06T18:49:12.450Z,104128.19
2023-02-06T18:51:39.371Z,104126.91
2023-02-06T18:54:07.850Z,104130.66
2023-02-06T18:56:35.420Z,104127.97
2023-02-06T18:59:03.999Z,104119.06
2023-02-06T19:01:32.028Z,104116.97
2023-02-06T19:03:59.879Z,104109.50
2023-02-06T19:06:31.873Z,104098.81
2023-02-06T19:08:59.358Z,104087.78
2023-02-06T19:11:26.561Z,104091.94
2023-02-06T19:13:53.952Z,104094.25
2023-02-06T19:16:21.615Z,104091.13
2023-02-06T19:18:49.787Z,104089.94
2023-02-06T19:21:19.249Z,104090.75
2023-02-06T19:23:48.218Z,104098.28
2023-02-06T19:26:17.260Z,104091.41
2023-02-06T19:28:45.245Z,104082.25
2023-02-06T19:31:13.425Z,104083.72
2023-02-06T19:33:41.831Z,104078.31
2023-02-06T19:36:11.398Z,104078.38
2023-02-06T19:38:38.550Z,104078.59
2023-02-06T19:41:11.362Z,104079.59
2023-02-06T19:43:38.703Z,104070.00
2023-02-06T19:46:12.366Z,104068.75
2023-02-06T19:48:43.950Z,104065.03
2023-02-06T19:51:14.821Z,104057.94
2023-02-06T19:53:45.775Z,104059.97
2023-02-06T19:56:15.131Z,104055.38
2023-02-06T19:58:42.191Z,104059.59
2023-02-06T20:01:11.250Z,104060.53
2023-02-06T20:03:39.201Z,104056.34
2023-02-06T20:06:09.581Z,104058.03
2023-02-06T20:08:38.036Z,104058.06
2023-02-06T20:11:06.781Z,104066.84
2023-02-06T20:13:35.139Z,104054.91
2023-02-06T20:16:07.461Z,104055.75
2023-02-06T20:18:36.720Z,104052.19
2023-02-06T20:21:04.049Z,104044.69
2023-02-06T20:23:31.712Z,104052.56
2023-02-06T20:26:02.357Z,104051.69
2023-02-06T20:28:29.933Z,104063.75
2023-02-06T20:30:57.153Z,104061.88
2023-02-06T20:33:24.062Z,104058.56
2023-02-06T20:35:51.090Z,104056.69
2023-02-06T20:38:18.063Z,104052.13
2023-02-06T20:40:51.117Z,104058.03
2023-02-06T20:43:18.362Z,104053.28
2023-02-06T20:45:45.282Z,104063.72
2023-02-06T20:48:12.458Z,104071.47
2023-02-06T20:50:39.712Z,104075.06
2023-02-06T20:53:06.644Z,104082.59
2023-02-06T20:55:33.695Z,104086.59
2023-02-06T20:58:00.788Z,104093.28
2023-02-06T21:00:28.159Z,104091.19
2023-02-06T21:02:55.425Z,104087.44
2023-02-06T21:05:22.329Z,104087.63
2023-02-06T21:07:49.320Z,104096.81
2023-02-06T21:10:16.803Z,104091.81
2023-02-06T21:12:43.849Z,104079.09
2023-02-06T21:15:10.925Z,104090.59
2023-02-06T21:17:38.464Z,104083.13
2023-02-06T21:20:06.485Z,104078.91
2023-02-06T21:22:33.863Z,104091.25
2023-02-06T21:25:00.918Z,104094.34
2023-02-06T21:27:29.235Z,104091.66
2023-02-06T21:29:56.080Z,104085.78
2023-02-06T21:32:23.353Z,104082.47
2023-02-06T21:34:50.899Z,104085.81
2023-02-06T21:37:18.078Z,104080.81
2023-02-06T21:39:45.411Z,104081.25
2023-02-06T21:42:12.403Z,104086.25
2023-02-06T21:44:39.275Z,104091.47
2023-02-06T21:47:06.645Z,104098.34
2023-02-06T21:49:33.701Z,104105.88
2023-02-06T21:52:01.016Z,104109.22
2023-02-06T21:54:29.711Z,104105.47
2023-02-06T21:56:57.572Z,104084.59
2023-02-06T21:59:24.544Z,104086.69
2023-02-06T22:01:52.172Z,104091.28
2023-02-06T22:04:19.492Z,104094.41
2023-02-06T22:06:48.767Z,104090.44
2023-02-06T22:09:17.057Z,104082.72
2023-02-06T22:11:45.405Z,104080.84
2023-02-06T22:14:15.550Z,104076.69
2023-02-06T22:16:43.316Z,104086.28
2023-02-06T22:19:10.486Z,104085.66
2023-02-06T22:21:37.590Z,104084.59
2023-02-06T22:24:06.816Z,104089.00
2023-02-06T22:26:37.053Z,104081.88
2023-02-06T22:29:10.132Z,104095.84
2023-02-06T22:31:40.467Z,104083.72
2023-02-06T22:34:11.961Z,104088.75
2023-02-06T22:36:39.613Z,104087.47
2023-02-06T22:39:08.707Z,104085.19
2023-02-06T22:41:39.441Z,104084.78
2023-02-06T22:44:06.480Z,104094.19
2023-02-06T22:46:38.579Z,104092.13
2023-02-06T22:49:07.639Z,104093.81
2023-02-06T22:51:36.009Z,104087.13
2023-02-06T22:54:03.707Z,104097.13
2023-02-06T22:56:36.146Z,104104.66
2023-02-06T22:59:07.273Z,104098.41
2023-02-06T23:01:36.322Z,104100.28
2023-02-06T23:04:06.653Z,104102.38
2023-02-06T23:06:36.724Z,104104.66
2023-02-06T23:09:06.394Z,104108.22
2023-02-06T23:11:34.030Z,104095.47
2023-02-06T23:14:02.621Z,104100.91
2023-02-06T23:16:30.956Z,104097.56
2023-02-06T23:18:58.053Z,104097.13
2023-02-06T23:21:26.249Z,104089.16
2023-02-06T23:23:56.023Z,104088.75
2023-02-06T23:26:23.542Z,104093.53
2023-02-06T23:28:51.050Z,104106.03
2023-02-06T23:31:18.107Z,104109.59
2023-02-06T23:33:45.089Z,104117.91
2023-02-06T23:36:17.141Z,104119.38
2023-02-06T23:38:44.472Z,104120.63
2023-02-06T23:41:14.266Z,104118.75
2023-02-06T23:43:41.818Z,104126.66
2023-02-06T23:46:12.387Z,104127.28
2023-02-06T23:48:39.993Z,104128.97
2023-02-06T23:51:07.180Z,104123.31
2023-02-06T23:53:34.282Z,104112.22
2023-02-06T23:56:01.290Z,104116.22
2023-02-06T23:58:28.240Z,104115.38
